createdAt,value
2023-04-29T00:02:24.028Z,63.18
2023-04-29T00:04:52.012Z,63.59
2023-04-29T00:07:19.339Z,63.53
2023-04-29T00:09:46.377Z,63.55
2023-04-29T00:12:15.040Z,63.92
2023-04-29T00:14:43.509Z,64.08
2023-04-29T00:17:10.701Z,64.34
2023-04-29T00:19:37.727Z,63.92
2023-04-29T00:22:04.710Z,64.10
2023-04-29T00:24:31.666Z,64.08
2023-04-29T00:26:58.637Z,64.31
2023-04-29T00:29:27.882Z,64.72
2023-04-29T00:31:54.821Z,65.01
2023-04-29T00:34:21.872Z,65.35
2023-04-29T00:36:49.265Z,66.22
2023-04-29T00:39:17.993Z,66.44
2023-04-29T00:41:44.992Z,66.54
2023-04-29T00:44:11.940Z,66.61
2023-04-29T00:46:40.473Z,66.65
2023-04-29T00:49:08.320Z,66.50
2023-04-29T00:51:36.644Z,65.88
2023-04-29T00:54:04.720Z,66.12
2023-04-29T00:56:34.414Z,66.72
2023-04-29T00:59:02.808Z,67.29
2023-04-29T01:01:29.890Z,66.72
2023-04-29T01:03:59.014Z,67.17
2023-04-29T01:06:31.313Z,67.41
2023-04-29T01:09:13.354Z,67.48
2023-04-29T01:11:48.837Z,66.80
2023-04-29T01:14:15.593Z,66.51
2023-04-29T01:16:45.521Z,65.65
2023-04-29T01:19:38.526Z,66.03
2023-04-29T01:22:05.960Z,66.27
2023-04-29T01:24:35.409Z,66.13
2023-04-29T01:27:11.482Z,66.20
2023-04-29T01:29:48.633Z,65.72
2023-04-29T01:32:23.497Z,65.38
2023-04-29T01:34:58.173Z,65.14
2023-04-29T01:37:34.928Z,64.98
2023-04-29T01:40:10.904Z,64.69
2023-04-29T01:42:46.072Z,65.20
2023-04-29T01:45:21.454Z,64.96
2023-04-29T01:47:49.341Z,64.42
2023-04-29T01:50:16.769Z,64.46
2023-04-29T01:52:44.089Z,64.74
2023-04-29T01:55:12.791Z,64.61
2023-04-29T01:58:08.797Z,65.64
2023-04-29T02:00:54.297Z,65.65
2023-04-29T02:03:21.676Z,66.21
2023-04-29T02:05:52.309Z,65.94
2023-04-29T02:08:19.348Z,66.32
2023-04-29T02:10:59.362Z,66.49
2023-04-29T02:13:44.532Z,67.06
2023-04-29T02:16:14.295Z,67.09
2023-04-29T02:18:51.013Z,67.41
2023-04-29T02:21:18.114Z,67.74
2023-04-29T02:23:45.307Z,67.85
2023-04-29T02:26:15.505Z,68.00
2023-04-29T02:28:42.696Z,68.28
2023-04-29T02:31:09.794Z,68.12
2023-04-29T02:33:36.772Z,68.58
2023-04-29T02:36:04.278Z,69.28
2023-04-29T02:38:31.259Z,69.54
2023-04-29T02:40:58.327Z,69.57
2023-04-29T02:43:26.769Z,69.17
2023-04-29T02:45:53.863Z,69.55
2023-04-29T02:48:21.077Z,69.73
2023-04-29T02:50:48.118Z,70.29
2023-04-29T02:53:15.269Z,70.46
2023-04-29T02:55:43.390Z,70.09
2023-04-29T02:58:10.610Z,70.13
2023-04-29T03:00:40.843Z,69.93
2023-04-29T03:03:08.174Z,69.77
2023-04-29T03:05:35.972Z,69.85
2023-04-29T03:08:04.224Z,70.36
2023-04-29T03:10:31.750Z,70.65
2023-04-29T03:12:59.038Z,71.17
2023-04-29T03:15:26.417Z,70.68
2023-04-29T03:17:55.113Z,70.75
2023-04-29T03:20:22.340Z,71.03
2023-04-29T03:22:49.459Z,71.08
2023-04-29T03:25:16.561Z,70.26
2023-04-29T03:27:43.624Z,70.44
2023-04-29T03:30:11.390Z,70.32
2023-04-29T03:32:44.953Z,69.46
2023-04-29T03:35:15.554Z,70.32
2023-04-29T03:38:01.815Z,70.54
2023-04-29T03:40:31.554Z,69.79
2023-04-29T03:43:00.873Z,70.51
2023-04-29T03:45:27.662Z,69.78
2023-04-29T03:47:54.971Z,70.01
2023-04-29T03:50:23.914Z,70.62
2023-04-29T03:52:50.959Z,70.82
2023-04-29T03:55:19.328Z,71.40
2023-04-29T03:57:47.430Z,71.40
2023-04-29T04:00:17.203Z,71.72
2023-04-29T04:02:46.882Z,71.44
2023-04-29T04:05:14.886Z,72.40
2023-04-29T04:07:48.762Z,71.45
2023-04-29T04:10:41.596Z,72.14
2023-04-29T04:13:19.707Z,71.32
2023-04-29T04:15:50.323Z,70.95
2023-04-29T04:18:17.487Z,71.19
2023-04-29T04:20:45.040Z,71.10
2023-04-29T04:23:13.466Z,70.78
2023-04-29T04:26:17.137Z,71.31
2023-04-29T04:29:22.690Z,71.24
2023-04-29T04:31:58.669Z,71.16
2023-04-29T04:34:26.391Z,70.83
2023-04-29T04:36:55.785Z,70.98
2023-04-29T04:39:22.955Z,69.52
2023-04-29T04:41:52.217Z,69.04
2023-04-29T04:44:20.127Z,68.82
2023-04-29T04:47:06.293Z,68.52
2023-04-29T04:49:45.381Z,68.67
2023-04-29T04:52:12.805Z,67.58
2023-04-29T04:54:39.878Z,68.12
2023-04-29T04:57:16.673Z,66.99
2023-04-29T04:59:44.692Z,67.14
2023-04-29T05:02:11.690Z,67.36
2023-04-29T05:04:38.695Z,65.92
2023-04-29T05:07:05.655Z,65.04
2023-04-29T05:09:47.376Z,64.67
2023-04-29T05:12:16.066Z,64.76
2023-04-29T05:14:42.974Z,62.57
2023-04-29T05:17:11.347Z,62.38
2023-04-29T05:19:38.448Z,62.79
2023-04-29T05:22:05.938Z,61.06
2023-04-29T05:24:32.981Z,61.01
2023-04-29T05:27:00.086Z,61.61
2023-04-29T05:29:28.546Z,60.91
2023-04-29T05:31:59.400Z,60.17
2023-04-29T05:34:26.470Z,58.72
2023-04-29T05:36:53.546Z,58.63
2023-04-29T05:39:20.829Z,59.12
2023-04-29T05:41:56.389Z,57.74
2023-04-29T05:44:35.255Z,57.93
2023-04-29T05:47:02.192Z,57.33
2023-04-29T05:49:30.523Z,58.06
2023-04-29T05:51:57.480Z,57.64
2023-04-29T05:54:24.621Z,56.98
2023-04-29T05:56:52.100Z,56.63
2023-04-29T05:59:19.089Z,55.99
2023-04-29T06:01:52.656Z,55.82
2023-04-29T06:04:20.012Z,55.69
2023-04-29T06:07:26.936Z,55.71
2023-04-29T06:09:58.924Z,54.86
2023-04-29T06:12:27.491Z,53.95
2023-04-29T06:14:54.566Z,52.12
2023-04-29T06:17:22.928Z,52.99
2023-04-29T06:19:49.918Z,51.61
2023-04-29T06:22:16.901Z,52.29
2023-04-29T06:24:52.802Z,51.29
2023-04-29T06:27:34.792Z,49.73
2023-04-29T06:30:02.161Z,49.41
2023-04-29T06:32:31.058Z,49.12
2023-04-29T06:34:57.875Z,47.55
2023-04-29T06:37:41.445Z,48.03
2023-04-29T06:40:19.742Z,47.08
2023-04-29T06:43:04.717Z,47.57
2023-04-29T06:46:02.108Z,47.50
2023-04-29T06:48:36.524Z,46.79
2023-04-29T06:51:04.538Z,45.94
2023-04-29T06:53:34.853Z,45.69
2023-04-29T06:56:01.873Z,46.50
2023-04-29T06:58:28.810Z,46.43
2023-04-29T07:00:55.917Z,45.53
2023-04-29T07:03:22.996Z,45.03
2023-04-29T07:05:52.225Z,45.08
2023-04-29T07:08:19.266Z,44.10
2023-04-29T07:10:54.139Z,44.36
2023-04-29T07:13:23.748Z,41.98
2023-04-29T07:15:51.247Z,42.55
2023-04-29T07:18:18.569Z,42.88
2023-04-29T07:20:46.398Z,42.22
2023-04-29T07:23:14.988Z,41.61
2023-04-29T07:25:42.081Z,41.70
2023-04-29T07:28:09.502Z,40.38
2023-04-29T07:30:36.586Z,40.47
2023-04-29T07:33:04.873Z,39.68
2023-04-29T07:35:33.279Z,40.50
2023-04-29T07:38:00.320Z,40.84
2023-04-29T07:40:28.749Z,40.08
2023-04-29T07:42:58.214Z,39.87
2023-04-29T07:45:25.173Z,39.82
2023-04-29T07:47:52.191Z,39.83
2023-04-29T07:50:19.212Z,39.10
2023-04-29T07:52:46.241Z,38.14
2023-04-29T07:55:16.749Z,40.33
2023-04-29T07:57:45.062Z,39.00
2023-04-29T08:00:12.799Z,37.72
2023-04-29T08:02:43.057Z,37.84
2023-04-29T08:05:13.252Z,39.31
2023-04-29T08:07:40.376Z,38.59
2023-04-29T08:10:08.618Z,37.50
2023-04-29T08:12:37.605Z,36.46
2023-04-29T08:15:09.074Z,33.93
2023-04-29T08:17:37.050Z,35.36
2023-04-29T08:20:05.095Z,34.95
2023-04-29T08:22:32.192Z,33.35
2023-04-29T08:24:59.152Z,31.78
2023-04-29T08:27:27.131Z,33.00
2023-04-29T08:29:54.021Z,31.96
2023-04-29T08:32:22.873Z,30.78
2023-04-29T08:34:49.796Z,31.83
2023-04-29T08:37:18.629Z,29.47
2023-04-29T08:39:47.909Z,30.87
2023-04-29T08:42:14.973Z,29.90
2023-04-29T08:44:42.488Z,30.34
2023-04-29T08:47:09.469Z,30.28
2023-04-29T08:49:38.411Z,29.00
2023-04-29T08:52:05.698Z,31.16
2023-04-29T08:54:33.115Z,29.88
2023-04-29T08:57:00.471Z,28.74
2023-04-29T08:59:28.907Z,30.24
2023-04-29T09:01:57.159Z,29.36
2023-04-29T09:04:31.378Z,30.30
2023-04-29T09:06:59.777Z,29.30
2023-04-29T09:09:26.763Z,28.62
2023-04-29T09:11:54.386Z,28.15
2023-04-29T09:14:24.056Z,28.89
2023-04-29T09:20:50.951Z,27.24
2023-04-29T09:23:19.378Z,28.14
2023-04-29T09:25:56.433Z,28.36
2023-04-29T09:28:24.248Z,27.44
2023-04-29T09:30:51.375Z,27.13
2023-04-29T09:33:18.533Z,26.97
2023-04-29T09:35:47.131Z,26.69
2023-04-29T09:38:15.109Z,25.89
2023-04-29T09:40:58.431Z,26.78
2023-04-29T09:43:27.196Z,26.26
2023-04-29T09:45:55.296Z,26.17
2023-04-29T09:48:23.053Z,24.97
2023-04-29T09:51:01.615Z,25.79
2023-04-29T09:53:29.844Z,26.50
2023-04-29T09:56:02.203Z,26.64
2023-04-29T09:58:31.530Z,25.49
2023-04-29T10:01:01.792Z,24.78
2023-04-29T10:03:32.976Z,27.28
2023-04-29T10:06:00.991Z,25.41
2023-04-29T10:08:28.194Z,27.48
2023-04-29T10:10:57.749Z,26.32
2023-04-29T10:13:27.072Z,26.85
2023-04-29T10:15:59.219Z,26.12
2023-04-29T10:18:31.316Z,26.51
2023-04-29T10:21:00.344Z,26.13
2023-04-29T10:23:46.193Z,24.90
2023-04-29T10:26:14.189Z,25.19
2023-04-29T10:28:42.273Z,22.79
2023-04-29T10:31:10.125Z,24.04
2023-04-29T10:33:37.608Z,24.85
2023-04-29T10:36:05.392Z,24.58
2023-04-29T10:38:40.858Z,23.09
2023-04-29T10:41:10.959Z,23.93
2023-04-29T10:43:38.176Z,23.51
2023-04-29T10:46:23.919Z,24.08
2023-04-29T10:48:55.500Z,23.60
2023-04-29T10:51:31.576Z,24.43
2023-04-29T10:54:00.925Z,23.79
2023-04-29T10:56:44.690Z,25.30
2023-04-29T10:59:13.325Z,25.79
2023-04-29T11:01:49.417Z,24.50
2023-04-29T11:04:17.509Z,26.05
2023-04-29T11:06:46.701Z,25.07
2023-04-29T11:09:16.116Z,24.29
2023-04-29T11:11:59.213Z,24.37
2023-04-29T11:14:27.549Z,25.48
2023-04-29T11:16:58.995Z,24.16
2023-04-29T11:19:31.223Z,23.92
2023-04-29T11:22:25.737Z,23.46
2023-04-29T11:24:54.742Z,22.87
2023-04-29T11:27:25.404Z,23.73
2023-04-29T11:29:58.133Z,24.06
2023-04-29T11:32:27.259Z,24.35
2023-04-29T11:34:54.628Z,24.18
2023-04-29T11:37:23.168Z,25.78
2023-04-29T11:39:50.593Z,25.08
2023-04-29T11:42:20.663Z,25.54
2023-04-29T11:44:47.641Z,26.07
2023-04-29T11:47:14.705Z,26.32
2023-04-29T11:49:43.370Z,26.18
2023-04-29T11:52:11.193Z,25.22
2023-04-29T11:54:38.116Z,26.02
2023-04-29T11:57:05.351Z,26.60
2023-04-29T11:59:34.796Z,26.49
2023-04-29T12:02:01.841Z,26.51
2023-04-29T12:04:29.016Z,27.04
2023-04-29T12:06:59.899Z,27.44
2023-04-29T12:09:26.963Z,27.14
2023-04-29T12:11:53.970Z,27.09
2023-04-29T12:14:21.040Z,27.56
2023-04-29T12:16:48.439Z,27.09
2023-04-29T12:19:16.007Z,28.45
2023-04-29T12:21:50.241Z,29.16
2023-04-29T12:24:21.474Z,28.78
2023-04-29T12:26:49.761Z,29.99
2023-04-29T12:29:16.902Z,30.21
2023-04-29T12:31:47.735Z,28.79
2023-04-29T12:34:14.911Z,29.63
2023-04-29T12:36:42.458Z,30.02
2023-04-29T12:39:11.204Z,30.85
2023-04-29T12:41:41.175Z,31.65
2023-04-29T12:44:08.788Z,32.86
2023-04-29T12:46:37.885Z,32.83
2023-04-29T12:49:05.464Z,33.08
2023-04-29T12:51:32.982Z,32.63
2023-04-29T12:54:01.281Z,31.93
2023-04-29T12:56:28.219Z,32.43
2023-04-29T12:58:56.617Z,31.72
2023-04-29T13:03:51.657Z,31.94
2023-04-29T13:06:18.995Z,32.57
2023-04-29T13:08:48.691Z,33.12
2023-04-29T13:11:15.729Z,33.85
2023-04-29T13:13:42.682Z,33.99
2023-04-29T13:16:11.501Z,35.22
2023-04-29T13:18:39.143Z,34.43
2023-04-29T13:21:06.290Z,33.97
2023-04-29T13:23:33.197Z,33.56
2023-04-29T13:26:00.178Z,33.07
2023-04-29T13:28:27.204Z,32.14
2023-04-29T13:30:54.488Z,33.18
2023-04-29T13:33:22.932Z,32.40
2023-04-29T13:35:50.080Z,32.86
2023-04-29T13:38:17.836Z,33.25
2023-04-29T13:40:46.675Z,32.99
2023-04-29T13:43:21.005Z,32.54
2023-04-29T13:45:56.387Z,33.95
2023-04-29T13:48:55.303Z,34.41
2023-04-29T13:51:34.577Z,35.95
2023-04-29T13:54:48.436Z,37.06
2023-04-29T14:04:35.993Z,34.98
2023-04-29T14:07:03.036Z,33.09
2023-04-29T14:09:30.041Z,34.06
2023-04-29T14:11:57.161Z,33.08
2023-04-29T14:14:24.453Z,32.67
2023-04-29T14:16:51.434Z,31.83
2023-04-29T14:19:18.414Z,31.06
2023-04-29T14:21:46.811Z,31.26
2023-04-29T14:24:13.789Z,31.35
2023-04-29T14:26:41.944Z,30.47
2023-04-29T14:29:09.040Z,29.82
2023-04-29T14:31:39.544Z,30.08
2023-04-29T14:34:06.621Z,29.96
2023-04-29T14:36:33.622Z,29.11
2023-04-29T14:39:02.096Z,29.70
2023-04-29T14:41:29.130Z,30.02
2023-04-29T14:43:56.213Z,30.06
2023-04-29T14:46:23.445Z,29.85
2023-04-29T14:48:50.514Z,31.12
2023-04-29T14:51:17.520Z,31.29
2023-04-29T14:53:44.579Z,30.63
2023-04-29T14:56:12.954Z,30.79
2023-04-29T14:58:40.148Z,31.89
2023-04-29T15:01:07.245Z,30.78
2023-04-29T15:03:42.850Z,31.75
2023-04-29T15:06:10.950Z,31.89
2023-04-29T15:08:38.490Z,30.91
2023-04-29T15:11:05.559Z,30.72
2023-04-29T15:13:34.075Z,29.86
2023-04-29T15:16:01.388Z,31.07
2023-04-29T15:18:28.354Z,30.70
2023-04-29T15:20:55.458Z,30.56
2023-04-29T15:23:22.376Z,30.29
2023-04-29T15:25:49.536Z,31.42
2023-04-29T15:28:16.535Z,31.77
2023-04-29T15:30:44.969Z,31.55
2023-04-29T15:33:12.127Z,32.10
2023-04-29T15:35:39.286Z,32.54
2023-04-29T15:38:25.788Z,32.62
2023-04-29T15:40:58.908Z,33.24
2023-04-29T15:43:26.532Z,33.54
2023-04-29T15:45:55.069Z,32.42
2023-04-29T15:48:22.085Z,33.56
2023-04-29T15:50:49.010Z,33.87
2023-04-29T15:53:16.067Z,33.67
2023-04-29T15:55:43.181Z,34.05
2023-04-29T15:58:10.143Z,34.20
2023-04-29T16:00:37.184Z,34.73
2023-04-29T16:03:05.718Z,35.06
2023-04-29T16:05:32.820Z,35.29
2023-04-29T16:07:59.824Z,35.35
2023-04-29T16:10:27.023Z,36.18
2023-04-29T16:12:54.018Z,35.37
2023-04-29T16:15:21.021Z,35.53
2023-04-29T16:17:48.039Z,36.15
2023-04-29T16:20:17.499Z,36.11
2023-04-29T16:22:44.524Z,36.43
2023-04-29T16:25:12.038Z,36.95
2023-04-29T16:27:39.114Z,37.35
2023-04-29T16:30:07.784Z,37.84
2023-04-29T16:32:34.880Z,38.38
2023-04-29T16:35:02.139Z,38.29
2023-04-29T16:37:30.666Z,38.45
2023-04-29T16:39:58.207Z,38.96
2023-04-29T16:42:25.201Z,41.55
2023-04-29T16:44:52.126Z,41.71
2023-04-29T16:47:20.459Z,40.39
2023-04-29T16:49:47.435Z,40.98
2023-04-29T16:52:14.527Z,41.91
2023-04-29T16:54:42.893Z,41.37
2023-04-29T16:57:09.871Z,42.06
2023-04-29T16:59:36.827Z,40.35
2023-04-29T17:02:04.019Z,41.83
2023-04-29T17:04:31.302Z,41.19
2023-04-29T17:06:58.859Z,39.90
2023-04-29T17:09:26.023Z,39.96
2023-04-29T17:12:13.307Z,40.28
2023-04-29T17:14:40.547Z,41.74
2023-04-29T17:17:07.667Z,43.68
2023-04-29T17:19:34.961Z,44.43
2023-04-29T17:22:01.976Z,44.46
2023-04-29T17:24:29.665Z,44.71
2023-04-29T17:26:59.578Z,44.96
2023-04-29T17:29:26.746Z,44.53
2023-04-29T17:32:00.017Z,45.05
2023-04-29T17:34:29.894Z,44.79
2023-04-29T17:36:56.895Z,45.27
2023-04-29T17:39:23.847Z,45.53
2023-04-29T17:41:50.840Z,46.57
2023-04-29T17:44:21.804Z,46.74
2023-04-29T17:46:50.250Z,46.32
2023-04-29T17:49:17.617Z,46.93
2023-04-29T17:51:44.643Z,47.72
2023-04-29T17:54:11.757Z,48.03
2023-04-29T17:56:38.731Z,48.97
2023-04-29T17:59:06.181Z,49.89
2023-04-29T18:01:34.710Z,51.45
2023-04-29T18:04:02.011Z,54.12
2023-04-29T18:06:30.371Z,54.12
2023-04-29T18:08:57.299Z,56.70
2023-04-29T18:11:25.222Z,59.12
2023-04-29T18:13:54.052Z,61.29
2023-04-29T18:16:21.274Z,62.43
2023-04-29T18:18:56.739Z,64.11
2023-04-29T18:21:24.568Z,65.02
2023-04-29T18:23:51.618Z,65.76
2023-04-29T18:26:18.644Z,65.62
2023-04-29T18:28:46.456Z,66.33
2023-04-29T18:31:13.531Z,64.56
2023-04-29T18:33:40.666Z,65.23
2023-04-29T18:36:09.253Z,64.88
2023-04-29T18:38:36.550Z,64.80
2023-04-29T18:41:03.598Z,65.10
2023-04-29T18:43:30.569Z,64.15
2023-04-29T18:45:58.544Z,64.20
2023-04-29T18:48:25.627Z,63.41
2023-04-29T18:50:52.915Z,63.86
2023-04-29T18:53:21.312Z,62.23
2023-04-29T18:55:48.145Z,62.84
2023-04-29T18:58:15.123Z,62.62
2023-04-29T19:00:42.188Z,62.97
2023-04-29T19:03:09.200Z,62.26
2023-04-29T19:05:36.231Z,64.18
2023-04-29T19:08:03.287Z,66.02
2023-04-29T19:10:31.637Z,66.42
2023-04-29T19:12:58.381Z,65.93
2023-04-29T19:15:27.970Z,66.43
2023-04-29T19:17:55.158Z,68.12
2023-04-29T19:20:22.189Z,68.39
2023-04-29T19:22:49.214Z,67.91
2023-04-29T19:25:16.515Z,68.32
2023-04-29T19:27:45.239Z,69.18
2023-04-29T19:30:13.197Z,69.24
2023-04-29T19:32:40.374Z,68.50
2023-04-29T19:35:07.827Z,67.21
2023-04-29T19:37:34.797Z,68.24
2023-04-29T19:40:01.755Z,67.66
2023-04-29T19:42:28.666Z,67.48
2023-04-29T19:44:57.042Z,67.58
2023-04-29T19:47:24.874Z,68.61
2023-04-29T19:49:52.108Z,67.69
2023-04-29T19:52:19.312Z,67.76
2023-04-29T19:54:46.263Z,67.26
2023-04-29T19:57:13.233Z,67.31
2023-04-29T19:59:40.164Z,67.13
2023-04-29T20:02:08.529Z,68.45
2023-04-29T20:04:35.517Z,68.56
2023-04-29T20:07:02.618Z,67.41
2023-04-29T20:09:29.708Z,66.36
2023-04-29T20:11:56.651Z,66.25
2023-04-29T20:14:23.641Z,66.73
2023-04-29T20:16:50.754Z,66.38
2023-04-29T20:19:19.464Z,66.14
2023-04-29T20:21:46.545Z,67.33
2023-04-29T20:24:13.547Z,67.82
2023-04-29T20:26:40.766Z,67.53
2023-04-29T20:29:07.756Z,66.78
2023-04-29T20:31:35.140Z,67.39
2023-04-29T20:34:02.149Z,66.65
2023-04-29T20:36:30.597Z,67.17
2023-04-29T20:38:57.475Z,67.33
2023-04-29T20:41:27.581Z,66.88
2023-04-29T20:43:55.150Z,66.41
2023-04-29T20:46:26.053Z,66.17
2023-04-29T20:48:53.140Z,67.13
2023-04-29T20:51:20.100Z,66.90
2023-04-29T20:53:49.054Z,67.01
2023-04-29T20:56:16.234Z,66.56
2023-04-29T20:58:43.196Z,66.23
2023-04-29T21:01:10.393Z,65.88
2023-04-29T21:03:38.198Z,66.53
2023-04-29T21:06:05.354Z,66.49
2023-04-29T21:08:32.300Z,65.21
2023-04-29T21:11:01.648Z,65.92
2023-04-29T21:13:28.616Z,66.94
2023-04-29T21:15:55.748Z,67.02
2023-04-29T21:18:22.805Z,67.53
2023-04-29T21:20:49.866Z,68.03
2023-04-29T21:23:17.055Z,67.98
2023-04-29T21:25:44.078Z,68.24
2023-04-29T21:28:12.880Z,68.25
2023-04-29T21:30:41.037Z,69.33
2023-04-29T21:33:08.089Z,68.51
2023-04-29T21:35:35.154Z,69.03
2023-04-29T21:38:02.250Z,69.88
2023-04-29T21:40:29.312Z,68.57
2023-04-29T21:42:57.606Z,68.81
2023-04-29T21:45:26.069Z,69.28
2023-04-29T21:47:53.305Z,68.82
2023-04-29T21:50:20.405Z,69.26
2023-04-29T21:52:47.416Z,69.27
2023-04-29T21:55:14.313Z,69.65
2023-04-29T21:57:44.825Z,69.01
2023-04-29T22:00:32.854Z,69.07
2023-04-29T22:03:01.848Z,70.09
2023-04-29T22:05:28.993Z,69.67
2023-04-29T22:07:58.335Z,70.00
2023-04-29T22:10:25.697Z,69.67
2023-04-29T22:12:52.665Z,69.89
2023-04-29T22:15:28.157Z,70.05
2023-04-29T22:17:56.911Z,69.82
2023-04-29T22:20:25.902Z,70.68
2023-04-29T22:22:53.079Z,71.01
2023-04-29T22:25:21.882Z,70.91
2023-04-29T22:27:49.252Z,71.68
2023-04-29T22:30:17.806Z,71.02
2023-04-29T22:32:45.112Z,71.37
2023-04-29T22:35:12.424Z,70.55
2023-04-29T22:37:41.090Z,70.28
2023-04-29T22:40:09.393Z,69.24
2023-04-29T22:42:36.491Z,70.29
2023-04-29T22:45:04.107Z,70.15
2023-04-29T22:47:31.306Z,70.24
2023-04-29T22:49:58.270Z,70.34
2023-04-29T22:52:27.057Z,70.81
2023-04-29T22:54:55.398Z,70.45
2023-04-29T22:57:22.427Z,70.96
2023-04-29T22:59:53.567Z,70.12
2023-04-29T23:02:20.826Z,70.48
2023-04-29T23:04:48.160Z,70.13
2023-04-29T23:07:15.101Z,69.84
2023-04-29T23:09:42.080Z,70.20
2023-04-29T23:12:10.500Z,70.32
2023-04-29T23:14:37.467Z,70.92
2023-04-29T23:17:04.436Z,70.74
2023-04-29T23:19:31.579Z,70.66
2023-04-29T23:21:58.564Z,71.05
2023-04-29T23:24:25.492Z,71.00
2023-04-29T23:26:52.478Z,71.69
2023-04-29T23:29:20.774Z,72.19
2023-04-29T23:31:48.000Z,72.51
2023-04-29T23:34:16.601Z,72.48
2023-04-29T23:36:43.573Z,72.26
2023-04-29T23:39:10.539Z,72.60
2023-04-29T23:41:37.477Z,72.15
2023-04-29T23:44:04.709Z,72.71
2023-04-29T23:46:33.127Z,72.62
2023-04-29T23:49:00.180Z,71.92
2023-04-29T23:51:27.132Z,72.29
2023-04-29T23:53:54.073Z,71.90
2023-04-29T23:56:20.980Z,72.23
2023-04-29T23:58:47.956Z,72.42
